Auberry, California
Current Conditions -  °F | °C
As of 8:53 AM on Sunday 23 Nov 2014 (Local Time) from KFAT Reporting Station
Overcast Overcast  
Wind Chill: 51°   Ceiling: 1200
Heat Index: 51°   Visibility: 9mi
Dew Point: 46°   Wind: 8mph
Humidity: 83%   Direction: 300°WNW
Pressure: 30.31"   Gusts: NA
Location:  37.08°N, 119.49°W
Report Text: KFAT 231653Z 30007KT 9SM OVC012 11/08 A3031 RMK AO2 SLP263 T01060078
Loading
Personal Weather Stations






























Interactive Weather Map New forecast layout! Learn more

10-Day Weather Forecast

Advertisements
Track Severe Weather on mobile